sensor_id;sensor_type;location;lat;lon;timestamp;P1;durP1;ratioP1;P2;durP2;ratioP2
58242;SDS011;50118;53.232;8.252;2023-04-06T00:00:53;16.92;;;11.27;;
58242;SDS011;50118;53.232;8.252;2023-04-06T00:03:19;17.13;;;11.25;;
58242;SDS011;50118;53.232;8.252;2023-04-06T00:05:44;16.33;;;10.55;;
58242;SDS011;50118;53.232;8.252;2023-04-06T00:08:12;15.65;;;10.70;;
58242;SDS011;50118;53.232;8.252;2023-04-06T00:10:37;16.45;;;10.30;;
58242;SDS011;50118;53.232;8.252;2023-04-06T00:13:03;19.27;;;11.95;;
58242;SDS011;50118;53.232;8.252;2023-04-06T00:15:28;16.73;;;10.52;;
58242;SDS011;50118;53.232;8.252;2023-04-06T00:17:53;17.77;;;11.52;;
58242;SDS011;50118;53.232;8.252;2023-04-06T00:20:20;17.65;;;11.10;;
58242;SDS011;50118;53.232;8.252;2023-04-06T00:22:45;16.33;;;11.23;;
58242;SDS011;50118;53.232;8.252;2023-04-06T00:25:11;17.60;;;11.07;;
58242;SDS011;50118;53.232;8.252;2023-04-06T00:27:37;17.63;;;11.82;;
58242;SDS011;50118;53.232;8.252;2023-04-06T00:30:03;18.00;;;11.13;;
58242;SDS011;50118;53.232;8.252;2023-04-06T00:32:30;20.02;;;12.32;;
58242;SDS011;50118;53.232;8.252;2023-04-06T00:34:55;18.90;;;11.63;;
58242;SDS011;50118;53.232;8.252;2023-04-06T00:37:21;19.45;;;12.27;;
58242;SDS011;50118;53.232;8.252;2023-04-06T00:39:46;19.10;;;12.80;;
58242;SDS011;50118;53.232;8.252;2023-04-06T00:42:12;18.33;;;11.63;;
58242;SDS011;50118;53.232;8.252;2023-04-06T00:44:39;17.48;;;11.63;;
58242;SDS011;50118;53.232;8.252;2023-04-06T00:47:08;20.02;;;12.13;;
58242;SDS011;50118;53.232;8.252;2023-04-06T00:49:33;20.40;;;12.23;;
58242;SDS011;50118;53.232;8.252;2023-04-06T00:51:59;21.63;;;13.13;;
58242;SDS011;50118;53.232;8.252;2023-04-06T00:54:26;20.67;;;13.13;;
58242;SDS011;50118;53.232;8.252;2023-04-06T00:56:52;24.15;;;14.23;;
58242;SDS011;50118;53.232;8.252;2023-04-06T00:59:17;21.98;;;14.30;;
58242;SDS011;50118;53.232;8.252;2023-04-06T01:01:43;24.55;;;14.52;;
58242;SDS011;50118;53.232;8.252;2023-04-06T01:04:08;22.42;;;13.90;;
58242;SDS011;50118;53.232;8.252;2023-04-06T01:06:34;22.55;;;13.43;;
58242;SDS011;50118;53.232;8.252;2023-04-06T01:09:00;23.20;;;14.10;;
58242;SDS011;50118;53.232;8.252;2023-04-06T01:11:25;23.65;;;13.95;;
58242;SDS011;50118;53.232;8.252;2023-04-06T01:13:51;23.63;;;15.40;;
58242;SDS011;50118;53.232;8.252;2023-04-06T01:16:17;23.98;;;14.15;;
58242;SDS011;50118;53.232;8.252;2023-04-06T01:18:42;22.98;;;14.27;;
58242;SDS011;50118;53.232;8.252;2023-04-06T01:21:08;20.85;;;14.05;;
58242;SDS011;50118;53.232;8.252;2023-04-06T01:23:40;22.90;;;14.65;;
58242;SDS011;50118;53.232;8.252;2023-04-06T01:26:05;24.10;;;14.13;;
58242;SDS011;50118;53.232;8.252;2023-04-06T01:28:30;21.20;;;13.80;;
58242;SDS011;50118;53.232;8.252;2023-04-06T01:30:56;22.67;;;14.00;;
58242;SDS011;50118;53.232;8.252;2023-04-06T01:33:21;22.98;;;14.05;;
58242;SDS011;50118;53.232;8.252;2023-04-06T01:35:47;22.02;;;14.50;;
58242;SDS011;50118;53.232;8.252;2023-04-06T01:38:12;22.90;;;14.50;;
58242;SDS011;50118;53.232;8.252;2023-04-06T01:40:37;23.25;;;14.55;;
58242;SDS011;50118;53.232;8.252;2023-04-06T01:43:03;24.95;;;15.88;;
58242;SDS011;50118;53.232;8.252;2023-04-06T01:45:28;24.25;;;15.23;;
58242;SDS011;50118;53.232;8.252;2023-04-06T01:47:53;23.60;;;15.02;;
58242;SDS011;50118;53.232;8.252;2023-04-06T01:50:19;21.92;;;14.50;;
58242;SDS011;50118;53.232;8.252;2023-04-06T01:52:44;26.05;;;16.08;;
58242;SDS011;50118;53.232;8.252;2023-04-06T01:55:10;26.17;;;16.73;;
58242;SDS011;50118;53.232;8.252;2023-04-06T01:57:35;28.33;;;16.58;;
58242;SDS011;50118;53.232;8.252;2023-04-06T02:00:01;26.88;;;16.80;;
58242;SDS011;50118;53.232;8.252;2023-04-06T02:02:26;26.52;;;17.02;;
58242;SDS011;50118;53.232;8.252;2023-04-06T02:04:52;28.02;;;16.73;;
58242;SDS011;50118;53.232;8.252;2023-04-06T02:07:17;29.38;;;16.80;;
58242;SDS011;50118;53.232;8.252;2023-04-06T02:09:42;37.55;;;21.58;;
58242;SDS011;50118;53.232;8.252;2023-04-06T02:12:08;33.85;;;19.63;;
58242;SDS011;50118;53.232;8.252;2023-04-06T02:14:33;36.25;;;20.02;;
58242;SDS011;50118;53.232;8.252;2023-04-06T02:16:59;36.38;;;19.98;;
58242;SDS011;50118;53.232;8.252;2023-04-06T02:19:24;36.15;;;20.92;;
58242;SDS011;50118;53.232;8.252;2023-04-06T02:21:50;35.50;;;21.35;;
58242;SDS011;50118;53.232;8.252;2023-04-06T02:24:15;42.63;;;23.77;;
58242;SDS011;50118;53.232;8.252;2023-04-06T02:26:41;49.30;;;27.75;;
58242;SDS011;50118;53.232;8.252;2023-04-06T02:29:07;44.75;;;26.15;;
58242;SDS011;50118;53.232;8.252;2023-04-06T02:31:33;45.70;;;25.83;;
58242;SDS011;50118;53.232;8.252;2023-04-06T02:33:58;44.80;;;25.30;;
58242;SDS011;50118;53.232;8.252;2023-04-06T02:36:23;39.33;;;23.83;;
58242;SDS011;50118;53.232;8.252;2023-04-06T02:38:49;47.58;;;27.85;;
58242;SDS011;50118;53.232;8.252;2023-04-06T02:41:15;42.05;;;25.10;;
58242;SDS011;50118;53.232;8.252;2023-04-06T02:43:40;41.08;;;24.00;;
58242;SDS011;50118;53.232;8.252;2023-04-06T02:46:06;37.35;;;23.30;;
58242;SDS011;50118;53.232;8.252;2023-04-06T02:48:31;37.17;;;23.80;;
58242;SDS011;50118;53.232;8.252;2023-04-06T02:50:56;42.72;;;26.00;;
58242;SDS011;50118;53.232;8.252;2023-04-06T02:53:22;43.20;;;25.15;;
58242;SDS011;50118;53.232;8.252;2023-04-06T02:55:47;39.00;;;23.17;;
58242;SDS011;50118;53.232;8.252;2023-04-06T02:58:12;42.47;;;24.98;;
58242;SDS011;50118;53.232;8.252;2023-04-06T03:00:38;40.30;;;24.50;;
58242;SDS011;50118;53.232;8.252;2023-04-06T03:03:03;44.88;;;26.20;;
58242;SDS011;50118;53.232;8.252;2023-04-06T03:05:29;45.15;;;24.92;;
58242;SDS011;50118;53.232;8.252;2023-04-06T03:07:55;42.63;;;25.60;;
58242;SDS011;50118;53.232;8.252;2023-04-06T03:10:21;41.75;;;24.15;;
58242;SDS011;50118;53.232;8.252;2023-04-06T03:12:46;41.42;;;24.92;;
58242;SDS011;50118;53.232;8.252;2023-04-06T03:15:11;38.58;;;23.30;;
58242;SDS011;50118;53.232;8.252;2023-04-06T03:17:37;39.70;;;23.70;;
58242;SDS011;50118;53.232;8.252;2023-04-06T03:20:02;39.03;;;24.17;;
58242;SDS011;50118;53.232;8.252;2023-04-06T03:22:29;39.90;;;24.02;;
58242;SDS011;50118;53.232;8.252;2023-04-06T03:24:54;37.50;;;23.40;;
58242;SDS011;50118;53.232;8.252;2023-04-06T03:27:20;34.75;;;21.50;;
58242;SDS011;50118;53.232;8.252;2023-04-06T03:29:45;38.35;;;22.80;;
58242;SDS011;50118;53.232;8.252;2023-04-06T03:32:11;37.85;;;22.50;;
58242;SDS011;50118;53.232;8.252;2023-04-06T03:34:36;35.28;;;21.98;;
58242;SDS011;50118;53.232;8.252;2023-04-06T03:37:01;38.53;;;23.00;;
58242;SDS011;50118;53.232;8.252;2023-04-06T03:39:27;39.05;;;22.88;;
58242;SDS011;50118;53.232;8.252;2023-04-06T03:41:52;34.80;;;21.92;;
58242;SDS011;50118;53.232;8.252;2023-04-06T03:44:18;36.50;;;22.70;;
58242;SDS011;50118;53.232;8.252;2023-04-06T03:46:44;36.97;;;22.60;;
58242;SDS011;50118;53.232;8.252;2023-04-06T03:49:10;37.70;;;22.63;;
58242;SDS011;50118;53.232;8.252;2023-04-06T03:51:35;37.38;;;22.30;;
58242;SDS011;50118;53.232;8.252;2023-04-06T03:54:00;36.20;;;22.05;;
58242;SDS011;50118;53.232;8.252;2023-04-06T03:56:26;36.25;;;21.60;;
58242;SDS011;50118;53.232;8.252;2023-04-06T03:58:51;36.80;;;22.17;;
58242;SDS011;50118;53.232;8.252;2023-04-06T04:01:17;36.58;;;21.92;;
58242;SDS011;50118;53.232;8.252;2023-04-06T04:03:43;33.22;;;20.17;;
58242;SDS011;50118;53.232;8.252;2023-04-06T04:06:08;33.03;;;20.00;;
58242;SDS011;50118;53.232;8.252;2023-04-06T04:08:35;34.35;;;20.95;;
58242;SDS011;50118;53.232;8.252;2023-04-06T04:11:01;31.27;;;20.17;;
58242;SDS011;50118;53.232;8.252;2023-04-06T04:13:26;32.03;;;20.27;;
58242;SDS011;50118;53.232;8.252;2023-04-06T04:15:52;31.55;;;19.50;;
58242;SDS011;50118;53.232;8.252;2023-04-06T04:18:18;29.55;;;19.02;;
58242;SDS011;50118;53.232;8.252;2023-04-06T04:20:43;29.02;;;18.83;;
58242;SDS011;50118;53.232;8.252;2023-04-06T04:23:09;28.35;;;17.95;;
58242;SDS011;50118;53.232;8.252;2023-04-06T04:25:34;28.45;;;17.83;;
58242;SDS011;50118;53.232;8.252;2023-04-06T04:28:00;27.23;;;17.38;;
58242;SDS011;50118;53.232;8.252;2023-04-06T04:30:26;26.70;;;17.25;;
58242;SDS011;50118;53.232;8.252;2023-04-06T04:32:51;25.80;;;17.63;;
58242;SDS011;50118;53.232;8.252;2023-04-06T04:35:17;25.65;;;17.48;;
58242;SDS011;50118;53.232;8.252;2023-04-06T04:37:42;27.23;;;17.50;;
58242;SDS011;50118;53.232;8.252;2023-04-06T04:40:07;24.67;;;16.40;;
58242;SDS011;50118;53.232;8.252;2023-04-06T04:42:33;26.13;;;16.38;;
58242;SDS011;50118;53.232;8.252;2023-04-06T04:44:59;24.48;;;15.75;;
58242;SDS011;50118;53.232;8.252;2023-04-06T04:47:24;24.45;;;16.67;;
58242;SDS011;50118;53.232;8.252;2023-04-06T04:49:50;26.48;;;17.08;;
58242;SDS011;50118;53.232;8.252;2023-04-06T04:52:15;25.45;;;17.58;;
58242;SDS011;50118;53.232;8.252;2023-04-06T04:54:40;25.20;;;17.00;;
58242;SDS011;50118;53.232;8.252;2023-04-06T04:57:06;25.80;;;16.38;;
58242;SDS011;50118;53.232;8.252;2023-04-06T04:59:32;26.08;;;16.58;;
58242;SDS011;50118;53.232;8.252;2023-04-06T05:01:57;24.00;;;16.00;;
58242;SDS011;50118;53.232;8.252;2023-04-06T05:04:23;24.30;;;16.45;;
58242;SDS011;50118;53.232;8.252;2023-04-06T05:06:48;25.63;;;16.48;;
58242;SDS011;50118;53.232;8.252;2023-04-06T05:09:14;22.40;;;15.40;;
58242;SDS011;50118;53.232;8.252;2023-04-06T05:11:40;22.02;;;15.10;;
58242;SDS011;50118;53.232;8.252;2023-04-06T05:14:05;21.13;;;14.70;;
58242;SDS011;50118;53.232;8.252;2023-04-06T05:16:31;24.08;;;14.98;;
58242;SDS011;50118;53.232;8.252;2023-04-06T05:18:57;21.40;;;14.73;;
58242;SDS011;50118;53.232;8.252;2023-04-06T05:21:23;21.05;;;14.05;;
58242;SDS011;50118;53.232;8.252;2023-04-06T05:23:48;21.80;;;14.23;;
58242;SDS011;50118;53.232;8.252;2023-04-06T05:26:14;18.92;;;13.70;;
58242;SDS011;50118;53.232;8.252;2023-04-06T05:28:39;19.42;;;13.48;;
58242;SDS011;50118;53.232;8.252;2023-04-06T05:31:07;18.85;;;12.80;;
58242;SDS011;50118;53.232;8.252;2023-04-06T05:33:32;17.98;;;13.38;;
58242;SDS011;50118;53.232;8.252;2023-04-06T05:35:58;19.23;;;13.18;;
58242;SDS011;50118;53.232;8.252;2023-04-06T05:38:25;16.02;;;11.88;;
58242;SDS011;50118;53.232;8.252;2023-04-06T05:40:50;18.23;;;12.77;;
58242;SDS011;50118;53.232;8.252;2023-04-06T05:43:16;18.10;;;12.27;;
58242;SDS011;50118;53.232;8.252;2023-04-06T05:45:43;17.15;;;12.10;;
58242;SDS011;50118;53.232;8.252;2023-04-06T05:48:09;15.65;;;12.27;;
58242;SDS011;50118;53.232;8.252;2023-04-06T05:50:35;15.32;;;12.05;;
58242;SDS011;50118;53.232;8.252;2023-04-06T05:53:00;15.75;;;11.70;;
58242;SDS011;50118;53.232;8.252;2023-04-06T05:55:25;15.57;;;11.52;;
58242;SDS011;50118;53.232;8.252;2023-04-06T05:57:52;14.48;;;11.15;;
58242;SDS011;50118;53.232;8.252;2023-04-06T06:00:18;14.40;;;11.35;;
58242;SDS011;50118;53.232;8.252;2023-04-06T06:02:44;14.20;;;10.68;;
58242;SDS011;50118;53.232;8.252;2023-04-06T06:05:10;13.95;;;11.10;;
58242;SDS011;50118;53.232;8.252;2023-04-06T06:07:35;13.73;;;10.93;;
58242;SDS011;50118;53.232;8.252;2023-04-06T06:10:01;12.50;;;10.77;;
58242;SDS011;50118;53.232;8.252;2023-04-06T06:12:27;13.15;;;10.93;;
58242;SDS011;50118;53.232;8.252;2023-04-06T06:14:53;11.30;;;9.73;;
58242;SDS011;50118;53.232;8.252;2023-04-06T06:17:19;12.68;;;10.18;;
58242;SDS011;50118;53.232;8.252;2023-04-06T06:19:44;13.80;;;10.02;;
58242;SDS011;50118;53.232;8.252;2023-04-06T06:22:10;12.32;;;8.98;;
58242;SDS011;50118;53.232;8.252;2023-04-06T06:24:35;11.85;;;9.07;;
58242;SDS011;50118;53.232;8.252;2023-04-06T06:27:01;9.93;;;7.90;;
58242;SDS011;50118;53.232;8.252;2023-04-06T06:29:26;12.73;;;8.73;;
58242;SDS011;50118;53.232;8.252;2023-04-06T06:31:52;10.10;;;7.82;;
58242;SDS011;50118;53.232;8.252;2023-04-06T06:34:17;9.68;;;7.72;;
58242;SDS011;50118;53.232;8.252;2023-04-06T06:36:42;11.45;;;7.93;;
58242;SDS011;50118;53.232;8.252;2023-04-06T06:39:08;10.98;;;7.72;;
58242;SDS011;50118;53.232;8.252;2023-04-06T06:41:33;9.20;;;7.55;;
58242;SDS011;50118;53.232;8.252;2023-04-06T06:43:58;11.10;;;8.25;;
58242;SDS011;50118;53.232;8.252;2023-04-06T06:46:24;9.32;;;7.70;;
58242;SDS011;50118;53.232;8.252;2023-04-06T06:48:50;9.45;;;7.93;;
58242;SDS011;50118;53.232;8.252;2023-04-06T06:51:15;10.95;;;8.30;;
58242;SDS011;50118;53.232;8.252;2023-04-06T06:53:41;11.93;;;8.20;;
58242;SDS011;50118;53.232;8.252;2023-04-06T06:56:06;10.40;;;8.07;;
58242;SDS011;50118;53.232;8.252;2023-04-06T06:58:31;9.70;;;7.63;;
58242;SDS011;50118;53.232;8.252;2023-04-06T07:00:57;10.10;;;7.78;;
58242;SDS011;50118;53.232;8.252;2023-04-06T07:03:23;8.88;;;7.70;;
58242;SDS011;50118;53.232;8.252;2023-04-06T07:05:49;9.40;;;7.93;;
58242;SDS011;50118;53.232;8.252;2023-04-06T07:08:18;9.35;;;7.32;;
58242;SDS011;50118;53.232;8.252;2023-04-06T07:10:47;11.05;;;7.72;;
58242;SDS011;50118;53.232;8.252;2023-04-06T07:13:13;10.75;;;7.65;;
58242;SDS011;50118;53.232;8.252;2023-04-06T07:15:46;10.27;;;8.07;;
58242;SDS011;50118;53.232;8.252;2023-04-06T07:18:12;9.75;;;7.32;;
58242;SDS011;50118;53.232;8.252;2023-04-06T07:20:38;10.80;;;7.45;;
58242;SDS011;50118;53.232;8.252;2023-04-06T07:23:03;9.45;;;7.43;;
58242;SDS011;50118;53.232;8.252;2023-04-06T07:25:29;10.98;;;7.45;;
58242;SDS011;50118;53.232;8.252;2023-04-06T07:27:54;10.18;;;7.78;;
58242;SDS011;50118;53.232;8.252;2023-04-06T07:30:20;10.80;;;7.80;;
58242;SDS011;50118;53.232;8.252;2023-04-06T07:32:46;10.05;;;7.55;;
58242;SDS011;50118;53.232;8.252;2023-04-06T07:35:12;9.75;;;8.23;;
58242;SDS011;50118;53.232;8.252;2023-04-06T07:37:37;9.82;;;7.25;;
58242;SDS011;50118;53.232;8.252;2023-04-06T07:40:03;9.95;;;7.60;;
58242;SDS011;50118;53.232;8.252;2023-04-06T07:42:29;9.90;;;7.57;;
58242;SDS011;50118;53.232;8.252;2023-04-06T07:44:54;10.90;;;7.55;;
58242;SDS011;50118;53.232;8.252;2023-04-06T07:47:20;11.80;;;7.85;;
58242;SDS011;50118;53.232;8.252;2023-04-06T07:49:46;11.15;;;8.57;;
58242;SDS011;50118;53.232;8.252;2023-04-06T07:52:11;10.68;;;7.80;;
58242;SDS011;50118;53.232;8.252;2023-04-06T07:54:36;8.98;;;7.15;;
58242;SDS011;50118;53.232;8.252;2023-04-06T07:57:02;14.10;;;8.40;;
58242;SDS011;50118;53.232;8.252;2023-04-06T07:59:27;9.80;;;7.57;;
58242;SDS011;50118;53.232;8.252;2023-04-06T08:01:52;9.80;;;7.75;;
58242;SDS011;50118;53.232;8.252;2023-04-06T08:04:18;11.35;;;7.68;;
58242;SDS011;50118;53.232;8.252;2023-04-06T08:06:44;10.27;;;8.02;;
58242;SDS011;50118;53.232;8.252;2023-04-06T08:09:10;11.23;;;7.78;;
58242;SDS011;50118;53.232;8.252;2023-04-06T08:11:35;11.38;;;7.35;;
58242;SDS011;50118;53.232;8.252;2023-04-06T08:14:01;10.93;;;7.50;;
58242;SDS011;50118;53.232;8.252;2023-04-06T08:16:26;11.20;;;7.70;;
58242;SDS011;50118;53.232;8.252;2023-04-06T08:18:52;8.25;;;6.80;;
58242;SDS011;50118;53.232;8.252;2023-04-06T08:21:17;10.70;;;7.60;;
58242;SDS011;50118;53.232;8.252;2023-04-06T08:23:43;11.38;;;7.75;;
58242;SDS011;50118;53.232;8.252;2023-04-06T08:26:08;9.25;;;7.13;;
58242;SDS011;50118;53.232;8.252;2023-04-06T08:28:34;9.27;;;7.57;;
58242;SDS011;50118;53.232;8.252;2023-04-06T08:31:04;11.35;;;7.53;;
58242;SDS011;50118;53.232;8.252;2023-04-06T08:33:30;10.25;;;7.75;;
58242;SDS011;50118;53.232;8.252;2023-04-06T08:35:56;10.07;;;7.68;;
58242;SDS011;50118;53.232;8.252;2023-04-06T08:38:21;9.50;;;7.28;;
58242;SDS011;50118;53.232;8.252;2023-04-06T08:40:47;8.77;;;7.03;;
58242;SDS011;50118;53.232;8.252;2023-04-06T08:43:14;10.52;;;7.25;;
58242;SDS011;50118;53.232;8.252;2023-04-06T08:45:43;11.13;;;6.63;;
58242;SDS011;50118;53.232;8.252;2023-04-06T08:48:09;10.90;;;6.72;;
58242;SDS011;50118;53.232;8.252;2023-04-06T08:50:38;10.70;;;7.05;;
58242;SDS011;50118;53.232;8.252;2023-04-06T08:53:04;9.45;;;6.90;;
58242;SDS011;50118;53.232;8.252;2023-04-06T08:55:31;11.02;;;7.20;;
58242;SDS011;50118;53.232;8.252;2023-04-06T08:57:57;8.75;;;6.47;;
58242;SDS011;50118;53.232;8.252;2023-04-06T09:00:24;8.95;;;6.47;;
58242;SDS011;50118;53.232;8.252;2023-04-06T09:02:51;8.77;;;6.43;;
58242;SDS011;50118;53.232;8.252;2023-04-06T09:05:18;11.13;;;6.93;;
58242;SDS011;50118;53.232;8.252;2023-04-06T09:07:44;8.80;;;6.32;;
58242;SDS011;50118;53.232;8.252;2023-04-06T09:10:10;8.82;;;6.03;;
58242;SDS011;50118;53.232;8.252;2023-04-06T09:12:35;8.07;;;6.05;;
58242;SDS011;50118;53.232;8.252;2023-04-06T09:15:01;9.45;;;6.60;;
58242;SDS011;50118;53.232;8.252;2023-04-06T09:17:28;9.95;;;7.30;;
58242;SDS011;50118;53.232;8.252;2023-04-06T09:19:55;10.35;;;6.55;;
58242;SDS011;50118;53.232;8.252;2023-04-06T09:22:21;10.38;;;6.00;;
58242;SDS011;50118;53.232;8.252;2023-04-06T09:24:48;9.50;;;6.28;;
58242;SDS011;50118;53.232;8.252;2023-04-06T09:27:15;8.70;;;6.15;;
58242;SDS011;50118;53.232;8.252;2023-04-06T09:29:41;9.38;;;6.30;;
58242;SDS011;50118;53.232;8.252;2023-04-06T09:32:08;10.45;;;6.18;;
58242;SDS011;50118;53.232;8.252;2023-04-06T09:34:40;7.82;;;6.32;;
58242;SDS011;50118;53.232;8.252;2023-04-06T09:37:15;10.27;;;6.45;;
58242;SDS011;50118;53.232;8.252;2023-04-06T09:39:42;9.75;;;6.40;;
58242;SDS011;50118;53.232;8.252;2023-04-06T09:42:08;8.90;;;6.65;;
58242;SDS011;50118;53.232;8.252;2023-04-06T09:44:33;7.68;;;6.20;;
58242;SDS011;50118;53.232;8.252;2023-04-06T09:46:59;7.88;;;6.32;;
58242;SDS011;50118;53.232;8.252;2023-04-06T09:49:28;11.07;;;6.60;;
58242;SDS011;50118;53.232;8.252;2023-04-06T09:51:57;10.63;;;6.80;;
58242;SDS011;50118;53.232;8.252;2023-04-06T09:54:30;11.50;;;6.90;;
58242;SDS011;50118;53.232;8.252;2023-04-06T09:59:49;9.90;;;6.97;;
58242;SDS011;50118;53.232;8.252;2023-04-06T10:02:25;9.63;;;6.95;;
58242;SDS011;50118;53.232;8.252;2023-04-06T10:04:56;11.73;;;7.28;;
58242;SDS011;50118;53.232;8.252;2023-04-06T10:07:27;11.88;;;7.20;;
58242;SDS011;50118;53.232;8.252;2023-04-06T10:09:53;11.75;;;6.93;;
58242;SDS011;50118;53.232;8.252;2023-04-06T10:12:20;11.48;;;7.50;;
58242;SDS011;50118;53.232;8.252;2023-04-06T10:14:45;10.77;;;7.05;;
58242;SDS011;50118;53.232;8.252;2023-04-06T10:17:11;11.48;;;7.63;;
58242;SDS011;50118;53.232;8.252;2023-04-06T10:22:31;10.60;;;7.95;;
58242;SDS011;50118;53.232;8.252;2023-04-06T10:25:04;10.07;;;7.43;;
58242;SDS011;50118;53.232;8.252;2023-04-06T10:27:30;12.93;;;8.23;;
58242;SDS011;50118;53.232;8.252;2023-04-06T10:30:05;10.40;;;8.20;;
58242;SDS011;50118;53.232;8.252;2023-04-06T10:32:37;11.27;;;8.07;;
58242;SDS011;50118;53.232;8.252;2023-04-06T10:35:10;10.43;;;8.05;;
58242;SDS011;50118;53.232;8.252;2023-04-06T10:37:49;13.75;;;8.85;;
58242;SDS011;50118;53.232;8.252;2023-04-06T10:40:25;13.25;;;8.95;;
58242;SDS011;50118;53.232;8.252;2023-04-06T10:42:54;13.00;;;8.50;;
58242;SDS011;50118;53.232;8.252;2023-04-06T10:45:24;11.27;;;8.50;;
58242;SDS011;50118;53.232;8.252;2023-04-06T10:47:54;12.57;;;8.95;;
58242;SDS011;50118;53.232;8.252;2023-04-06T10:50:21;12.98;;;8.73;;
58242;SDS011;50118;53.232;8.252;2023-04-06T10:52:47;11.57;;;8.60;;
58242;SDS011;50118;53.232;8.252;2023-04-06T10:55:25;13.27;;;9.10;;
58242;SDS011;50118;53.232;8.252;2023-04-06T10:57:51;13.05;;;9.50;;
58242;SDS011;50118;53.232;8.252;2023-04-06T11:00:17;13.52;;;10.13;;
58242;SDS011;50118;53.232;8.252;2023-04-06T11:02:44;14.20;;;9.43;;
58242;SDS011;50118;53.232;8.252;2023-04-06T11:05:10;14.27;;;9.93;;
58242;SDS011;50118;53.232;8.252;2023-04-06T11:07:37;11.55;;;9.20;;
58242;SDS011;50118;53.232;8.252;2023-04-06T11:10:04;11.68;;;9.10;;
58242;SDS011;50118;53.232;8.252;2023-04-06T11:12:30;16.38;;;9.32;;
58242;SDS011;50118;53.232;8.252;2023-04-06T11:14:59;13.57;;;8.63;;
58242;SDS011;50118;53.232;8.252;2023-04-06T11:17:30;12.65;;;9.45;;
58242;SDS011;50118;53.232;8.252;2023-04-06T11:19:57;13.55;;;9.60;;
58242;SDS011;50118;53.232;8.252;2023-04-06T11:22:23;13.60;;;9.20;;
58242;SDS011;50118;53.232;8.252;2023-04-06T11:24:50;13.18;;;9.68;;
58242;SDS011;50118;53.232;8.252;2023-04-06T11:27:15;12.55;;;9.23;;
58242;SDS011;50118;53.232;8.252;2023-04-06T11:29:42;12.82;;;9.40;;
58242;SDS011;50118;53.232;8.252;2023-04-06T11:32:08;12.93;;;9.45;;
58242;SDS011;50118;53.232;8.252;2023-04-06T11:34:35;13.57;;;9.20;;
58242;SDS011;50118;53.232;8.252;2023-04-06T11:37:02;19.38;;;10.70;;
58242;SDS011;50118;53.232;8.252;2023-04-06T11:39:32;12.05;;;7.63;;
58242;SDS011;50118;53.232;8.252;2023-04-06T11:42:04;10.85;;;8.18;;
58242;SDS011;50118;53.232;8.252;2023-04-06T11:46:58;14.73;;;8.70;;
58242;SDS011;50118;53.232;8.252;2023-04-06T11:49:28;11.57;;;8.73;;
58242;SDS011;50118;53.232;8.252;2023-04-06T11:51:55;12.60;;;8.50;;
58242;SDS011;50118;53.232;8.252;2023-04-06T11:56:59;11.57;;;8.27;;
58242;SDS011;50118;53.232;8.252;2023-04-06T11:59:25;11.95;;;8.65;;
58242;SDS011;50118;53.232;8.252;2023-04-06T12:01:52;13.52;;;9.43;;
58242;SDS011;50118;53.232;8.252;2023-04-06T12:04:18;13.15;;;9.57;;
58242;SDS011;50118;53.232;8.252;2023-04-06T12:06:44;13.88;;;10.52;;
58242;SDS011;50118;53.232;8.252;2023-04-06T12:09:10;18.63;;;11.93;;
58242;SDS011;50118;53.232;8.252;2023-04-06T12:11:35;16.02;;;12.00;;
58242;SDS011;50118;53.232;8.252;2023-04-06T12:14:01;15.25;;;11.93;;
58242;SDS011;50118;53.232;8.252;2023-04-06T12:16:29;18.58;;;12.57;;
58242;SDS011;50118;53.232;8.252;2023-04-06T12:18:55;18.45;;;12.85;;
58242;SDS011;50118;53.232;8.252;2023-04-06T12:21:21;18.73;;;12.88;;
58242;SDS011;50118;53.232;8.252;2023-04-06T12:23:46;17.77;;;12.57;;
58242;SDS011;50118;53.232;8.252;2023-04-06T12:26:12;18.05;;;12.15;;
58242;SDS011;50118;53.232;8.252;2023-04-06T12:28:37;15.88;;;11.27;;
58242;SDS011;50118;53.232;8.252;2023-04-06T12:31:02;15.82;;;11.82;;
58242;SDS011;50118;53.232;8.252;2023-04-06T12:33:28;15.60;;;11.30;;
58242;SDS011;50118;53.232;8.252;2023-04-06T12:35:53;16.10;;;10.93;;
58242;SDS011;50118;53.232;8.252;2023-04-06T12:38:19;15.43;;;11.40;;
58242;SDS011;50118;53.232;8.252;2023-04-06T12:40:45;15.07;;;11.05;;
58242;SDS011;50118;53.232;8.252;2023-04-06T12:43:10;14.15;;;9.82;;
58242;SDS011;50118;53.232;8.252;2023-04-06T12:45:38;15.77;;;10.75;;
58242;SDS011;50118;53.232;8.252;2023-04-06T12:48:04;16.10;;;10.10;;
58242;SDS011;50118;53.232;8.252;2023-04-06T12:50:29;17.90;;;10.93;;
58242;SDS011;50118;53.232;8.252;2023-04-06T12:52:55;15.32;;;10.43;;
58242;SDS011;50118;53.232;8.252;2023-04-06T12:55:20;13.98;;;10.25;;
58242;SDS011;50118;53.232;8.252;2023-04-06T12:57:46;14.52;;;9.77;;
58242;SDS011;50118;53.232;8.252;2023-04-06T13:00:12;13.80;;;9.88;;
58242;SDS011;50118;53.232;8.252;2023-04-06T13:02:39;15.57;;;9.27;;
58242;SDS011;50118;53.232;8.252;2023-04-06T13:05:04;14.18;;;9.57;;
58242;SDS011;50118;53.232;8.252;2023-04-06T13:07:30;13.55;;;9.30;;
58242;SDS011;50118;53.232;8.252;2023-04-06T13:09:56;13.18;;;9.25;;
58242;SDS011;50118;53.232;8.252;2023-04-06T13:12:21;13.00;;;9.32;;
58242;SDS011;50118;53.232;8.252;2023-04-06T13:14:47;14.73;;;9.85;;
58242;SDS011;50118;53.232;8.252;2023-04-06T13:17:16;14.20;;;9.55;;
58242;SDS011;50118;53.232;8.252;2023-04-06T13:19:42;15.23;;;9.13;;
58242;SDS011;50118;53.232;8.252;2023-04-06T13:22:08;12.50;;;8.77;;
58242;SDS011;50118;53.232;8.252;2023-04-06T13:24:33;13.43;;;9.48;;
58242;SDS011;50118;53.232;8.252;2023-04-06T13:26:59;12.30;;;8.35;;
58242;SDS011;50118;53.232;8.252;2023-04-06T13:29:25;13.65;;;9.00;;
58242;SDS011;50118;53.232;8.252;2023-04-06T13:31:52;13.20;;;8.93;;
58242;SDS011;50118;53.232;8.252;2023-04-06T13:34:17;13.77;;;9.20;;
58242;SDS011;50118;53.232;8.252;2023-04-06T13:36:43;13.70;;;9.05;;
58242;SDS011;50118;53.232;8.252;2023-04-06T13:39:08;14.15;;;9.35;;
58242;SDS011;50118;53.232;8.252;2023-04-06T13:41:34;14.85;;;9.15;;
58242;SDS011;50118;53.232;8.252;2023-04-06T13:44:00;13.98;;;9.30;;
58242;SDS011;50118;53.232;8.252;2023-04-06T13:46:25;13.68;;;9.23;;
58242;SDS011;50118;53.232;8.252;2023-04-06T13:48:52;12.68;;;8.60;;
58242;SDS011;50118;53.232;8.252;2023-04-06T13:51:18;12.18;;;9.05;;
58242;SDS011;50118;53.232;8.252;2023-04-06T13:53:43;12.02;;;8.18;;
58242;SDS011;50118;53.232;8.252;2023-04-06T13:56:09;12.52;;;7.93;;
58242;SDS011;50118;53.232;8.252;2023-04-06T13:58:35;16.15;;;9.18;;
58242;SDS011;50118;53.232;8.252;2023-04-06T14:01:07;13.82;;;9.35;;
58242;SDS011;50118;53.232;8.252;2023-04-06T14:03:34;12.60;;;8.52;;
58242;SDS011;50118;53.232;8.252;2023-04-06T14:06:01;12.63;;;8.52;;
58242;SDS011;50118;53.232;8.252;2023-04-06T14:08:34;13.93;;;8.55;;
58242;SDS011;50118;53.232;8.252;2023-04-06T14:11:00;12.55;;;8.60;;
58242;SDS011;50118;53.232;8.252;2023-04-06T14:13:25;13.27;;;8.98;;
58242;SDS011;50118;53.232;8.252;2023-04-06T14:15:54;12.30;;;9.10;;
58242;SDS011;50118;53.232;8.252;2023-04-06T14:18:20;11.90;;;8.63;;
58242;SDS011;50118;53.232;8.252;2023-04-06T14:20:57;13.73;;;9.35;;
58242;SDS011;50118;53.232;8.252;2023-04-06T14:23:24;13.07;;;8.93;;
58242;SDS011;50118;53.232;8.252;2023-04-06T14:26:13;15.52;;;9.48;;
58242;SDS011;50118;53.232;8.252;2023-04-06T14:28:38;13.55;;;9.43;;
58242;SDS011;50118;53.232;8.252;2023-04-06T14:31:13;13.52;;;9.10;;
58242;SDS011;50118;53.232;8.252;2023-04-06T14:33:40;14.35;;;9.70;;